TimeCDT,TemperatureF,Dew PointF,Humidity,Sea Level PressureIn,VisibilityMPH,Wind Direction,Wind SpeedMPH,Gust SpeedMPH,PrecipitationIn,Events,Conditions,WindDirDegrees,DateUTC
12:15 AM,66.2,51.8,60,30.06,10.0,NW,3.5,-,N/A,,Clear,320,2013-07-02 05:15:00
12:35 AM,64.4,51.8,64,30.05,10.0,Calm,Calm,-,N/A,,Clear,0,2013-07-02 05:35:00
12:55 AM,62.6,51.8,68,30.05,10.0,Calm,Calm,-,N/A,,Clear,0,2013-07-02 05:55:00
1:15 AM,62.6,51.8,68,30.05,10.0,NW,3.5,-,N/A,,Clear,310,2013-07-02 06:15:00
1:35 AM,62.6,50.0,63,30.05,10.0,NW,3.5,-,N/A,,Clear,310,2013-07-02 06:35:00
1:55 AM,62.6,50.0,63,30.04,10.0,NW,3.5,-,N/A,,Clear,310,2013-07-02 06:55:00
2:15 AM,62.6,50.0,63,30.04,10.0,NW,3.5,-,N/A,,Clear,310,2013-07-02 07:15:00
2:35 AM,62.6,50.0,63,30.04,10.0,NW,4.6,-,N/A,,Partly Cloudy,320,2013-07-02 07:35:00
2:55 AM,62.6,50.0,63,30.04,10.0,NW,3.5,-,N/A,,Scattered Clouds,320,2013-07-02 07:55:00
3:15 AM,62.6,50.0,63,30.04,10.0,NW,3.5,-,N/A,,Mostly Cloudy,320,2013-07-02 08:15:00
3:35 AM,60.8,50.0,68,30.04,10.0,NW,3.5,-,N/A,,Mostly Cloudy,310,2013-07-02 08:35:00
3:55 AM,60.8,50.0,68,30.04,10.0,WNW,3.5,-,N/A,,Overcast,300,2013-07-02 08:55:00
4:15 AM,62.6,50.0,63,30.04,10.0,NW,4.6,-,N/A,,Overcast,310,2013-07-02 09:15:00
4:35 AM,60.8,50.0,68,30.04,10.0,NW,3.5,-,N/A,,Overcast,310,2013-07-02 09:35:00
4:55 AM,60.8,50.0,68,30.05,10.0,NW,3.5,-,N/A,,Overcast,310,2013-07-02 09:55:00
5:15 AM,59.0,50.0,72,30.05,10.0,WNW,3.5,-,N/A,,Mostly Cloudy,300,2013-07-02 10:15:00
5:35 AM,59.0,50.0,72,30.05,10.0,NW,3.5,-,N/A,,Mostly Cloudy,310,2013-07-02 10:35:00
5:55 AM,60.8,50.0,68,30.06,10.0,WNW,3.5,-,N/A,,Partly Cloudy,290,2013-07-02 10:55:00
6:15 AM,59.0,50.0,72,30.07,10.0,WNW,4.6,-,N/A,,Clear,290,2013-07-02 11:15:00
6:35 AM,60.8,50.0,68,30.07,10.0,Calm,Calm,-,N/A,,Clear,0,2013-07-02 11:35:00
6:51 AM,60.8,51.8,72,30.08,10.0,Calm,Calm,-,N/A,,Partly Cloudy,0,2013-07-02 11:51:00
7:51 AM,62.6,55.4,77,30.09,10.0,WNW,4.6,-,N/A,,Partly Cloudy,300,2013-07-02 12:51:00
9:45 AM,68.0,50.0,52,30.10,10.0,NNW,8.1,-,N/A,,Clear,340,2013-07-02 14:45:00
10:45 AM,71.6,53.6,53,30.10,10.0,NNW,10.4,-,N/A,,Partly Cloudy,340,2013-07-02 15:45:00
11:45 AM,75.2,51.8,44,30.10,10.0,NNW,12.7,19.6,N/A,,Scattered Clouds,340,2013-07-02 16:45:00
12:45 PM,77.0,48.2,36,30.09,10.0,NNW,13.8,18.4,N/A,,Partly Cloudy,340,2013-07-02 17:45:00
1:55 PM,80.6,44.6,28,30.08,10.0,NNW,11.5,19.6,N/A,,Partly Cloudy,340,2013-07-02 18:55:00
2:52 PM,80.6,44.6,28,30.07,10.0,North,8.1,18.4,N/A,,Partly Cloudy,360,2013-07-02 19:52:00
3:45 PM,80.6,41.0,24,30.07,10.0,NNE,8.1,19.6,N/A,,Partly Cloudy,20,2013-07-02 20:45:00
4:45 PM,80.6,46.4,30,30.06,10.0,NNE,11.5,17.3,N/A,,Scattered Clouds,20,2013-07-02 21:45:00
5:50 PM,78.8,48.2,34,30.06,10.0,North,11.5,19.6,N/A,,Scattered Clouds,10,2013-07-02 22:50:00
6:50 PM,75.2,48.2,38,30.07,10.0,North,6.9,-,N/A,,Scattered Clouds,360,2013-07-02 23:50:00
7:45 PM,75.2,48.2,38,30.08,10.0,NNE,4.6,-,N/A,,Scattered Clouds,20,2013-07-03 00:45:00
8:50 PM,71.6,50.0,46,30.09,10.0,NE,3.5,-,N/A,,Scattered Clouds,40,2013-07-03 01:50:00
9:15 PM,69.8,50.0,49,30.09,10.0,Calm,Calm,-,N/A,,Scattered Clouds,0,2013-07-03 02:15:00
9:35 PM,68.0,50.0,52,30.09,10.0,Calm,Calm,-,N/A,,Scattered Clouds,0,2013-07-03 02:35:00
9:55 PM,68.0,50.0,52,30.10,10.0,Calm,Calm,-,N/A,,Clear,0,2013-07-03 02:55:00
10:15 PM,66.2,50.0,56,30.10,10.0,Calm,Calm,-,N/A,,Clear,0,2013-07-03 03:15:00
10:35 PM,66.2,50.0,56,30.11,10.0,Calm,Calm,-,N/A,,Clear,0,2013-07-03 03:35:00
10:55 PM,66.2,50.0,56,30.11,10.0,Calm,Calm,-,N/A,,Clear,0,2013-07-03 03:55:00
11:15 PM,66.2,51.8,60,30.11,10.0,Calm,Calm,-,N/A,,Clear,0,2013-07-03 04:15:00
11:35 PM,64.4,51.8,64,30.11,10.0,Calm,Calm,-,N/A,,Clear,0,2013-07-03 04:35:00
11:55 PM,64.4,51.8,64,30.11,10.0,Calm,Calm,-,N/A,,Clear,0,2013-07-03 04:55:00